CheckWX is a tool to help pilots better visualize weather data.  It is not intended as a substitute for an official pre-flight weather briefing.

20:29:58 UTC

FACT TAF
Cape Town International Airport
Cape Town, South Africa
TAF FACT 221600Z 2218/2324 20010KT CAVOK TX31/2312Z TN16/2304Z FM230300 VRB03KT CAVOK BECMG 2312/2314 20010KT BECMG 2320/2322 BKN010

Mar-22@
18:00 UTC

Mar-22 @ 18:00 UTC

Mar-23@
03:00 UTC

Mar-23 @ 03:00 UTC

TAF FACT 221600Z 2218/2324 20010KT CAVOK TX31/2312Z TN16/2304Z
Wind
  • 200° at 10 KTS
Cloud Levels
  • No significant clouds

Mar-23@
03:00 UTC

Mar-23 @ 03:00 UTC

Mar-23@
12:00 UTC

Mar-23 @ 12:00 UTC

FM230300 VRB03KT CAVOK

From

From Standard forecast or significant change

Wind
  • Variable at 3 KTS
Conditions
No significant weather
Cloud Levels
  • No significant clouds

Mar-23@
12:00 UTC

Mar-23 @ 12:00 UTC

Mar-23@
20:00 UTC

Mar-23 @ 20:00 UTC

BECMG 2312/2314 20010KT

Becoming

Becoming Conditions expected by Sat, Mar 23, 2019 @ 14:00 UTC

Wind
  • 200° at 10 KTS
Conditions
No significant weather
Cloud Levels
  • No significant clouds

Mar-23@
20:00 UTC

Mar-23 @ 20:00 UTC

Mar-24@
00:00 UTC

Mar-24 @ 00:00 UTC

BECMG 2320/2322 BKN010

Becoming

Becoming Conditions expected by Sat, Mar 23, 2019 @ 22:00 UTC

Wind
  • 200° at 10 KTS
Conditions
No significant weather
Cloud Levels
  • Broken at 1,000' AGL